createdAt,value
2023-03-29T00:04:02.458Z,2.95
2023-03-29T00:09:06.804Z,2.90
2023-03-29T00:14:07.575Z,2.95
2023-03-29T00:19:08.275Z,2.53
2023-03-29T00:24:10.528Z,2.72
2023-03-29T00:29:11.578Z,3.30
2023-03-29T00:34:12.560Z,2.75
2023-03-29T00:39:14.589Z,3.08
2023-03-29T00:45:02.520Z,3.05
2023-03-29T00:50:07.572Z,3.05
2023-03-29T00:55:13.283Z,3.05
2023-03-29T01:00:18.163Z,2.75
2023-03-29T01:05:24.308Z,2.42
2023-03-29T01:10:34.109Z,2.45
2023-03-29T01:15:35.229Z,2.47
2023-03-29T01:20:49.123Z,2.42
2023-03-29T01:25:58.590Z,2.58
2023-03-29T01:31:08.359Z,2.65
2023-03-29T01:36:17.405Z,2.55
2023-03-29T01:41:18.301Z,2.90
2023-03-29T01:46:27.476Z,2.90
2023-03-29T01:51:36.740Z,3.00
2023-03-29T01:56:41.839Z,3.10
2023-03-29T02:01:50.547Z,2.88
2023-03-29T02:06:54.463Z,2.65
2023-03-29T02:11:58.365Z,3.50
2023-03-29T02:17:16.912Z,2.67
2023-03-29T02:22:24.309Z,3.00
2023-03-29T02:27:25.137Z,3.58
2023-03-29T02:32:33.464Z,2.63
2023-03-29T02:37:40.550Z,4.40
2023-03-29T02:42:45.469Z,3.67
2023-03-29T02:47:52.568Z,2.83
2023-03-29T02:52:56.859Z,2.88
2023-03-29T02:57:58.028Z,2.60
2023-03-29T03:03:02.035Z,2.50
2023-03-29T03:08:04.626Z,3.05
2023-03-29T03:13:05.793Z,3.25
2023-03-29T03:18:08.325Z,3.63
2023-03-29T03:23:10.719Z,3.15
2023-03-29T03:28:12.508Z,3.70
2023-03-29T03:33:14.567Z,2.92
2023-03-29T03:38:44.081Z,3.67
2023-03-29T03:43:48.844Z,2.72
2023-03-29T03:48:52.075Z,2.92
2023-03-29T03:54:05.575Z,3.33
2023-03-29T03:59:09.362Z,3.58
2023-03-29T04:04:28.833Z,3.45
2023-03-29T04:09:35.390Z,3.50
2023-03-29T04:14:50.990Z,3.38
2023-03-29T04:19:58.562Z,3.75
2023-03-29T04:25:02.912Z,3.55
2023-03-29T04:30:35.563Z,4.43
2023-03-29T04:35:46.359Z,4.25
2023-03-29T04:40:49.423Z,4.45
2023-03-29T04:45:59.634Z,3.50
2023-03-29T04:51:25.102Z,4.13
2023-03-29T04:56:28.008Z,4.18
2023-03-29T05:01:47.250Z,3.30
2023-03-29T05:06:49.412Z,3.00
2023-03-29T05:11:51.552Z,3.25
2023-03-29T05:16:54.317Z,3.78
2023-03-29T05:21:56.454Z,3.38
2023-03-29T05:26:58.543Z,4.65
2023-03-29T05:32:01.814Z,3.95
2023-03-29T05:37:04.039Z,3.28
2023-03-29T05:42:15.749Z,3.08
2023-03-29T05:47:24.826Z,3.70
2023-03-29T05:52:27.434Z,3.75
2023-03-29T05:57:28.286Z,3.72
2023-03-29T06:02:29.518Z,3.30
2023-03-29T06:07:33.654Z,3.78
2023-03-29T06:13:00.168Z,3.60
2023-03-29T06:18:01.648Z,3.50
2023-03-29T06:23:03.982Z,4.10
2023-03-29T06:28:04.948Z,4.22
2023-03-29T06:33:08.163Z,3.83
2023-03-29T06:38:28.617Z,3.40
2023-03-29T06:43:29.528Z,3.45
2023-03-29T06:48:41.945Z,3.95
2023-03-29T06:53:44.377Z,4.70
2023-03-29T06:58:47.016Z,3.30
2023-03-29T07:04:08.872Z,4.00
2023-03-29T07:09:32.198Z,3.90
2023-03-29T07:15:11.904Z,3.78
2023-03-29T07:20:33.776Z,4.60
2023-03-29T07:25:42.717Z,4.15
2023-03-29T07:30:43.780Z,3.30
2023-03-29T07:35:48.079Z,3.55
2023-03-29T07:40:50.463Z,3.38
2023-03-29T07:46:14.226Z,3.03
2023-03-29T07:51:16.009Z,3.80
2023-03-29T07:56:20.669Z,3.55
2023-03-29T08:01:26.181Z,4.18
2023-03-29T08:06:35.247Z,4.10
2023-03-29T08:11:39.797Z,3.50
2023-03-29T08:16:49.376Z,3.63
2023-03-29T08:21:51.698Z,3.08
2023-03-29T08:26:56.048Z,3.30
2023-03-29T08:31:59.560Z,3.47
2023-03-29T08:37:00.566Z,3.13
2023-03-29T08:42:30.591Z,3.58
2023-03-29T08:47:39.792Z,3.40
2023-03-29T08:52:50.812Z,3.90
2023-03-29T08:58:20.076Z,3.45
2023-03-29T09:03:24.198Z,3.85
2023-03-29T09:08:28.849Z,3.25
2023-03-29T09:13:40.748Z,3.63
2023-03-29T09:18:57.222Z,3.38
2023-03-29T09:24:16.564Z,3.45
2023-03-29T09:29:53.044Z,3.33
2023-03-29T09:35:10.000Z,3.60
2023-03-29T09:40:14.332Z,3.05
2023-03-29T09:45:31.274Z,7.13
2023-03-29T09:50:37.309Z,3.30
2023-03-29T09:55:40.988Z,5.75
2023-03-29T10:01:08.961Z,4.10
2023-03-29T10:06:13.387Z,3.85
2023-03-29T10:11:24.192Z,3.60
2023-03-29T10:16:30.516Z,3.55
2023-03-29T10:21:32.670Z,3.15
2023-03-29T10:26:36.181Z,3.35
2023-03-29T10:31:41.693Z,5.20
2023-03-29T10:36:45.438Z,3.78
2023-03-29T10:41:47.398Z,2.97
2023-03-29T10:46:49.444Z,4.43
2023-03-29T10:51:51.603Z,3.78
2023-03-29T10:56:56.547Z,3.63
2023-03-29T11:02:29.377Z,3.85
2023-03-29T11:07:33.240Z,4.22
2023-03-29T11:12:44.800Z,3.90
2023-03-29T11:18:00.381Z,5.40
2023-03-29T11:23:14.646Z,5.38
2023-03-29T11:28:20.156Z,5.57
2023-03-29T11:33:34.638Z,5.75
2023-03-29T11:38:39.350Z,6.10
2023-03-29T11:43:43.892Z,5.90
2023-03-29T11:48:52.003Z,5.75
2023-03-29T11:54:00.976Z,5.80
2023-03-29T11:59:08.532Z,5.88
2023-03-29T12:04:15.876Z,6.38
2023-03-29T12:09:26.559Z,6.50
2023-03-29T12:14:31.086Z,7.28
2023-03-29T12:19:40.938Z,7.28
2023-03-29T12:24:47.070Z,6.53
2023-03-29T12:30:34.136Z,7.70
2023-03-29T12:35:53.640Z,8.05
2023-03-29T12:41:19.017Z,8.77
2023-03-29T12:46:38.588Z,8.23
2023-03-29T12:51:43.746Z,8.38
2023-03-29T12:56:58.311Z,8.60
2023-03-29T13:02:01.699Z,7.55
2023-03-29T13:07:04.065Z,7.72
2023-03-29T13:12:08.930Z,8.90
2023-03-29T13:17:20.227Z,8.82
2023-03-29T13:22:34.248Z,9.55
2023-03-29T13:27:44.858Z,9.60
2023-03-29T13:32:56.547Z,9.20
2023-03-29T13:38:06.405Z,10.98
2023-03-29T13:43:12.393Z,10.73
2023-03-29T13:48:26.143Z,10.15
2023-03-29T13:53:32.387Z,10.60
2023-03-29T13:58:39.155Z,9.90
2023-03-29T14:03:44.795Z,9.48
2023-03-29T14:08:46.996Z,10.20
2023-03-29T14:13:47.898Z,9.45
2023-03-29T14:18:51.454Z,9.13
2023-03-29T14:23:59.014Z,10.20
2023-03-29T14:29:01.805Z,7.97
2023-03-29T14:34:04.194Z,7.72
2023-03-29T14:39:11.532Z,10.77
2023-03-29T14:44:15.506Z,9.05
2023-03-29T14:49:17.914Z,8.40
2023-03-29T14:54:23.272Z,7.75
2023-03-29T14:59:28.474Z,8.10
2023-03-29T15:04:33.970Z,8.48
2023-03-29T15:09:38.394Z,8.52
2023-03-29T15:14:39.340Z,7.45
2023-03-29T15:19:40.261Z,6.93
2023-03-29T15:24:48.748Z,7.57
2023-03-29T15:29:49.827Z,7.47
2023-03-29T15:34:59.360Z,7.10
2023-03-29T15:40:05.717Z,7.63
2023-03-29T15:45:07.359Z,7.30
2023-03-29T15:50:08.741Z,7.18
2023-03-29T15:55:11.729Z,6.82
2023-03-29T16:00:14.746Z,6.65
2023-03-29T16:05:15.603Z,5.38
2023-03-29T16:10:17.758Z,5.57
2023-03-29T16:15:21.459Z,5.38
2023-03-29T16:20:22.153Z,6.57
2023-03-29T16:25:25.408Z,6.90
2023-03-29T16:30:26.311Z,7.28
2023-03-29T16:35:29.359Z,7.18
2023-03-29T16:40:31.634Z,7.65
2023-03-29T16:45:32.511Z,8.13
2023-03-29T16:50:33.969Z,8.82
2023-03-29T16:55:38.010Z,8.88
2023-03-29T17:00:38.923Z,8.50
2023-03-29T17:05:41.668Z,9.80
2023-03-29T17:10:44.270Z,8.52
2023-03-29T17:15:45.063Z,10.18
2023-03-29T17:20:45.942Z,10.55
2023-03-29T17:25:47.990Z,11.07
2023-03-29T17:30:48.773Z,11.43
2023-03-29T17:35:49.698Z,10.88
2023-03-29T17:40:55.288Z,10.32
2023-03-29T17:45:56.055Z,11.52
2023-03-29T17:50:57.828Z,10.80
2023-03-29T17:55:59.842Z,11.00
2023-03-29T18:01:00.745Z,10.77
2023-03-29T18:06:01.798Z,10.93
2023-03-29T18:11:08.786Z,9.40
2023-03-29T18:16:10.497Z,10.00
2023-03-29T18:21:11.378Z,9.65
2023-03-29T18:26:14.709Z,10.40
2023-03-29T18:31:19.802Z,9.98
2023-03-29T18:36:21.419Z,9.25
2023-03-29T18:41:24.536Z,9.52
2023-03-29T18:46:25.778Z,8.13
2023-03-29T18:51:28.119Z,8.65
2023-03-29T18:56:30.889Z,9.07
2023-03-29T19:01:31.591Z,8.98
2023-03-29T19:06:32.761Z,9.02
2023-03-29T19:11:36.048Z,8.98
2023-03-29T19:16:37.182Z,8.38
2023-03-29T19:21:38.729Z,8.30
2023-03-29T19:26:41.131Z,8.75
2023-03-29T19:31:42.027Z,8.48
2023-03-29T19:36:42.767Z,9.15
2023-03-29T19:41:44.847Z,8.23
2023-03-29T19:46:45.708Z,8.43
2023-03-29T19:51:47.907Z,8.63
2023-03-29T19:56:52.030Z,8.77
2023-03-29T20:01:57.009Z,8.85
2023-03-29T20:06:58.553Z,8.48
2023-03-29T20:12:01.052Z,7.70
2023-03-29T20:17:02.106Z,9.18
2023-03-29T20:22:03.342Z,8.32
2023-03-29T20:27:05.759Z,8.07
2023-03-29T20:32:06.925Z,8.43
2023-03-29T20:37:08.007Z,7.80
2023-03-29T20:42:10.246Z,8.00
2023-03-29T20:47:14.156Z,9.18
2023-03-29T20:52:16.898Z,9.20
2023-03-29T20:57:21.320Z,7.47
2023-03-29T21:02:23.799Z,8.93
2023-03-29T21:07:24.608Z,7.82
2023-03-29T21:12:26.614Z,8.35
2023-03-29T21:17:27.703Z,8.25
2023-03-29T21:22:28.454Z,7.53
2023-03-29T21:27:30.483Z,8.00
2023-03-29T21:32:31.431Z,8.32
2023-03-29T21:37:32.161Z,8.35
2023-03-29T21:42:35.037Z,7.15
2023-03-29T21:47:35.856Z,8.15
2023-03-29T21:52:37.791Z,7.75
2023-03-29T21:57:39.859Z,7.68
2023-03-29T22:02:41.279Z,7.65
2023-03-29T22:07:42.228Z,7.70
2023-03-29T22:12:44.424Z,7.35
2023-03-29T22:17:45.262Z,6.88
2023-03-29T22:22:49.670Z,7.68
2023-03-29T22:27:51.840Z,6.38
2023-03-29T22:32:52.513Z,6.40
2023-03-29T22:37:53.335Z,7.35
2023-03-29T22:42:55.422Z,6.60
2023-03-29T22:47:56.233Z,6.75
2023-03-29T22:52:57.000Z,6.88
2023-03-29T22:57:59.139Z,5.97
2023-03-29T23:02:59.847Z,5.63
2023-03-29T23:08:01.036Z,6.00
2023-03-29T23:13:08.920Z,6.50
2023-03-29T23:18:13.267Z,6.65
2023-03-29T23:23:14.535Z,6.47
2023-03-29T23:28:21.825Z,6.07
2023-03-29T23:33:23.330Z,6.55
2023-03-29T23:38:24.322Z,6.50
2023-03-29T23:43:27.207Z,6.03
2023-03-29T23:48:28.469Z,5.38
2023-03-29T23:53:30.012Z,6.57
2023-03-29T23:58:34.950Z,6.57
